sensor_id;sensor_type;location;lat;lon;timestamp;P1;durP1;ratioP1;P2;durP2;ratioP2
37805;SDS011;25082;50.870;0.022;2024-01-30T00:01:55;7.20;;;4.15;;
37805;SDS011;25082;50.870;0.022;2024-01-30T00:04:21;9.98;;;4.60;;
37805;SDS011;25082;50.870;0.022;2024-01-30T00:06:47;7.05;;;4.40;;
37805;SDS011;25082;50.870;0.022;2024-01-30T00:09:13;6.93;;;3.90;;
37805;SDS011;25082;50.870;0.022;2024-01-30T00:11:39;11.25;;;4.28;;
37805;SDS011;25082;50.870;0.022;2024-01-30T00:14:05;6.72;;;3.92;;
37805;SDS011;25082;50.870;0.022;2024-01-30T00:16:31;10.30;;;4.47;;
37805;SDS011;25082;50.870;0.022;2024-01-30T00:18:56;7.88;;;3.88;;
37805;SDS011;25082;50.870;0.022;2024-01-30T00:21:23;8.48;;;4.60;;
37805;SDS011;25082;50.870;0.022;2024-01-30T00:23:48;10.10;;;4.55;;
37805;SDS011;25082;50.870;0.022;2024-01-30T00:26:14;7.97;;;3.75;;
37805;SDS011;25082;50.870;0.022;2024-01-30T00:28:41;7.50;;;4.20;;
37805;SDS011;25082;50.870;0.022;2024-01-30T00:31:07;9.27;;;3.92;;
37805;SDS011;25082;50.870;0.022;2024-01-30T00:33:37;8.85;;;4.00;;
37805;SDS011;25082;50.870;0.022;2024-01-30T00:36:04;6.85;;;4.53;;
37805;SDS011;25082;50.870;0.022;2024-01-30T00:38:31;8.75;;;3.70;;
37805;SDS011;25082;50.870;0.022;2024-01-30T00:40:57;10.73;;;4.90;;
37805;SDS011;25082;50.870;0.022;2024-01-30T00:43:23;8.13;;;4.60;;
37805;SDS011;25082;50.870;0.022;2024-01-30T00:45:50;7.80;;;4.38;;
37805;SDS011;25082;50.870;0.022;2024-01-30T00:48:17;9.57;;;4.38;;
37805;SDS011;25082;50.870;0.022;2024-01-30T00:50:43;6.70;;;3.45;;
37805;SDS011;25082;50.870;0.022;2024-01-30T00:53:09;9.07;;;4.80;;
37805;SDS011;25082;50.870;0.022;2024-01-30T00:55:35;10.52;;;4.35;;
37805;SDS011;25082;50.870;0.022;2024-01-30T00:58:00;8.45;;;4.50;;
37805;SDS011;25082;50.870;0.022;2024-01-30T01:00:26;9.27;;;5.05;;
37805;SDS011;25082;50.870;0.022;2024-01-30T01:02:54;11.75;;;4.30;;
37805;SDS011;25082;50.870;0.022;2024-01-30T01:05:20;11.23;;;4.65;;
37805;SDS011;25082;50.870;0.022;2024-01-30T01:07:46;9.25;;;4.03;;
37805;SDS011;25082;50.870;0.022;2024-01-30T01:10:16;9.05;;;3.95;;
37805;SDS011;25082;50.870;0.022;2024-01-30T01:12:42;10.00;;;4.68;;
37805;SDS011;25082;50.870;0.022;2024-01-30T01:15:08;9.10;;;4.03;;
37805;SDS011;25082;50.870;0.022;2024-01-30T01:17:37;6.55;;;4.10;;
37805;SDS011;25082;50.870;0.022;2024-01-30T01:20:04;10.70;;;4.32;;
37805;SDS011;25082;50.870;0.022;2024-01-30T01:22:31;10.05;;;4.57;;
37805;SDS011;25082;50.870;0.022;2024-01-30T01:24:58;10.52;;;4.78;;
37805;SDS011;25082;50.870;0.022;2024-01-30T01:27:24;8.30;;;4.00;;
37805;SDS011;25082;50.870;0.022;2024-01-30T01:29:50;9.88;;;3.92;;
37805;SDS011;25082;50.870;0.022;2024-01-30T01:32:16;8.13;;;3.88;;
37805;SDS011;25082;50.870;0.022;2024-01-30T01:34:42;8.57;;;3.90;;
37805;SDS011;25082;50.870;0.022;2024-01-30T01:37:08;11.73;;;5.15;;
37805;SDS011;25082;50.870;0.022;2024-01-30T01:39:33;8.50;;;4.35;;
37805;SDS011;25082;50.870;0.022;2024-01-30T01:41:59;8.20;;;4.32;;
37805;SDS011;25082;50.870;0.022;2024-01-30T01:44:25;9.57;;;4.95;;
37805;SDS011;25082;50.870;0.022;2024-01-30T01:46:51;8.68;;;3.92;;
37805;SDS011;25082;50.870;0.022;2024-01-30T01:49:18;9.23;;;3.97;;
37805;SDS011;25082;50.870;0.022;2024-01-30T01:51:45;10.60;;;4.63;;
37805;SDS011;25082;50.870;0.022;2024-01-30T01:54:14;9.55;;;4.28;;
37805;SDS011;25082;50.870;0.022;2024-01-30T01:56:42;9.07;;;3.58;;
37805;SDS011;25082;50.870;0.022;2024-01-30T01:59:08;11.82;;;3.88;;
37805;SDS011;25082;50.870;0.022;2024-01-30T02:01:35;7.18;;;3.63;;
37805;SDS011;25082;50.870;0.022;2024-01-30T02:04:02;9.00;;;3.00;;
37805;SDS011;25082;50.870;0.022;2024-01-30T02:06:28;13.13;;;4.78;;
37805;SDS011;25082;50.870;0.022;2024-01-30T02:08:54;8.10;;;3.42;;
37805;SDS011;25082;50.870;0.022;2024-01-30T02:11:20;7.38;;;3.28;;
37805;SDS011;25082;50.870;0.022;2024-01-30T02:13:47;7.20;;;2.92;;
37805;SDS011;25082;50.870;0.022;2024-01-30T02:16:13;8.75;;;3.30;;
37805;SDS011;25082;50.870;0.022;2024-01-30T02:18:38;9.00;;;3.30;;
37805;SDS011;25082;50.870;0.022;2024-01-30T02:21:10;8.45;;;3.42;;
37805;SDS011;25082;50.870;0.022;2024-01-30T02:23:36;9.73;;;3.67;;
37805;SDS011;25082;50.870;0.022;2024-01-30T02:26:03;7.18;;;3.05;;
37805;SDS011;25082;50.870;0.022;2024-01-30T02:28:28;7.80;;;3.33;;
37805;SDS011;25082;50.870;0.022;2024-01-30T02:30:54;5.85;;;2.80;;
37805;SDS011;25082;50.870;0.022;2024-01-30T02:33:20;9.95;;;3.10;;
37805;SDS011;25082;50.870;0.022;2024-01-30T02:35:47;10.70;;;3.63;;
37805;SDS011;25082;50.870;0.022;2024-01-30T02:38:13;10.38;;;3.08;;
37805;SDS011;25082;50.870;0.022;2024-01-30T02:40:40;8.00;;;2.63;;
37805;SDS011;25082;50.870;0.022;2024-01-30T02:43:06;6.22;;;2.58;;
37805;SDS011;25082;50.870;0.022;2024-01-30T02:45:32;11.05;;;2.38;;
37805;SDS011;25082;50.870;0.022;2024-01-30T02:47:57;8.70;;;3.22;;
37805;SDS011;25082;50.870;0.022;2024-01-30T02:50:23;6.60;;;2.17;;
37805;SDS011;25082;50.870;0.022;2024-01-30T02:52:49;6.05;;;2.50;;
37805;SDS011;25082;50.870;0.022;2024-01-30T02:55:15;5.25;;;1.92;;
37805;SDS011;25082;50.870;0.022;2024-01-30T02:57:43;6.53;;;2.22;;
37805;SDS011;25082;50.870;0.022;2024-01-30T03:00:09;5.70;;;2.17;;
37805;SDS011;25082;50.870;0.022;2024-01-30T03:02:35;6.95;;;2.47;;
37805;SDS011;25082;50.870;0.022;2024-01-30T03:05:02;6.63;;;2.35;;
37805;SDS011;25082;50.870;0.022;2024-01-30T03:07:29;4.60;;;1.70;;
37805;SDS011;25082;50.870;0.022;2024-01-30T03:09:54;6.88;;;2.30;;
37805;SDS011;25082;50.870;0.022;2024-01-30T03:12:20;4.93;;;2.10;;
37805;SDS011;25082;50.870;0.022;2024-01-30T03:14:46;8.20;;;2.03;;
37805;SDS011;25082;50.870;0.022;2024-01-30T03:17:12;6.78;;;2.58;;
37805;SDS011;25082;50.870;0.022;2024-01-30T03:19:38;5.13;;;2.00;;
37805;SDS011;25082;50.870;0.022;2024-01-30T03:22:04;4.50;;;1.42;;
37805;SDS011;25082;50.870;0.022;2024-01-30T03:24:30;2.53;;;1.30;;
37805;SDS011;25082;50.870;0.022;2024-01-30T03:26:56;6.30;;;2.65;;
37805;SDS011;25082;50.870;0.022;2024-01-30T03:29:21;5.05;;;2.08;;
37805;SDS011;25082;50.870;0.022;2024-01-30T03:31:47;3.55;;;1.40;;
37805;SDS011;25082;50.870;0.022;2024-01-30T03:34:13;5.45;;;1.70;;
37805;SDS011;25082;50.870;0.022;2024-01-30T03:36:39;4.18;;;1.30;;
37805;SDS011;25082;50.870;0.022;2024-01-30T03:39:04;5.20;;;1.58;;
37805;SDS011;25082;50.870;0.022;2024-01-30T03:41:31;5.55;;;1.40;;
37805;SDS011;25082;50.870;0.022;2024-01-30T03:43:57;4.60;;;1.40;;
37805;SDS011;25082;50.870;0.022;2024-01-30T03:46:23;3.75;;;1.30;;
37805;SDS011;25082;50.870;0.022;2024-01-30T03:48:49;4.55;;;1.45;;
37805;SDS011;25082;50.870;0.022;2024-01-30T03:51:15;4.03;;;1.40;;
37805;SDS011;25082;50.870;0.022;2024-01-30T03:53:44;7.97;;;2.00;;
37805;SDS011;25082;50.870;0.022;2024-01-30T03:56:11;3.92;;;1.10;;
37805;SDS011;25082;50.870;0.022;2024-01-30T03:58:38;6.50;;;1.52;;
37805;SDS011;25082;50.870;0.022;2024-01-30T04:01:04;5.85;;;1.55;;
37805;SDS011;25082;50.870;0.022;2024-01-30T04:03:30;7.50;;;1.77;;
37805;SDS011;25082;50.870;0.022;2024-01-30T04:05:56;3.45;;;1.30;;
37805;SDS011;25082;50.870;0.022;2024-01-30T04:08:21;4.80;;;1.50;;
37805;SDS011;25082;50.870;0.022;2024-01-30T04:10:47;4.95;;;1.50;;
37805;SDS011;25082;50.870;0.022;2024-01-30T04:13:13;2.53;;;0.70;;
37805;SDS011;25082;50.870;0.022;2024-01-30T04:15:39;2.95;;;1.08;;
37805;SDS011;25082;50.870;0.022;2024-01-30T04:18:05;4.45;;;1.73;;
37805;SDS011;25082;50.870;0.022;2024-01-30T04:20:31;5.85;;;1.27;;
37805;SDS011;25082;50.870;0.022;2024-01-30T04:22:56;3.55;;;1.25;;
37805;SDS011;25082;50.870;0.022;2024-01-30T04:25:22;4.35;;;1.30;;
37805;SDS011;25082;50.870;0.022;2024-01-30T04:27:48;5.03;;;1.00;;
37805;SDS011;25082;50.870;0.022;2024-01-30T04:30:14;2.67;;;0.95;;
37805;SDS011;25082;50.870;0.022;2024-01-30T04:32:40;2.25;;;1.02;;
37805;SDS011;25082;50.870;0.022;2024-01-30T04:35:05;4.50;;;1.23;;
37805;SDS011;25082;50.870;0.022;2024-01-30T04:37:31;3.55;;;0.95;;
37805;SDS011;25082;50.870;0.022;2024-01-30T04:39:57;2.67;;;0.82;;
37805;SDS011;25082;50.870;0.022;2024-01-30T04:42:23;5.60;;;1.50;;
37805;SDS011;25082;50.870;0.022;2024-01-30T04:44:49;4.97;;;1.38;;
37805;SDS011;25082;50.870;0.022;2024-01-30T04:47:16;4.75;;;1.20;;
37805;SDS011;25082;50.870;0.022;2024-01-30T04:49:42;4.53;;;1.15;;
37805;SDS011;25082;50.870;0.022;2024-01-30T04:52:08;2.85;;;1.23;;
37805;SDS011;25082;50.870;0.022;2024-01-30T04:54:34;5.40;;;1.10;;
37805;SDS011;25082;50.870;0.022;2024-01-30T04:57:01;4.28;;;0.90;;
37805;SDS011;25082;50.870;0.022;2024-01-30T04:59:28;3.45;;;1.17;;
37805;SDS011;25082;50.870;0.022;2024-01-30T05:01:54;5.00;;;1.08;;
37805;SDS011;25082;50.870;0.022;2024-01-30T05:04:19;5.70;;;1.27;;
37805;SDS011;25082;50.870;0.022;2024-01-30T05:06:45;2.72;;;0.93;;
37805;SDS011;25082;50.870;0.022;2024-01-30T05:09:11;2.55;;;0.80;;
37805;SDS011;25082;50.870;0.022;2024-01-30T05:11:40;2.08;;;0.90;;
37805;SDS011;25082;50.870;0.022;2024-01-30T05:14:06;1.85;;;0.82;;
37805;SDS011;25082;50.870;0.022;2024-01-30T05:16:33;3.22;;;1.10;;
37805;SDS011;25082;50.870;0.022;2024-01-30T05:18:59;2.97;;;0.80;;
37805;SDS011;25082;50.870;0.022;2024-01-30T05:21:25;2.90;;;0.85;;
37805;SDS011;25082;50.870;0.022;2024-01-30T05:23:51;2.50;;;0.80;;
37805;SDS011;25082;50.870;0.022;2024-01-30T05:26:17;2.58;;;0.90;;
37805;SDS011;25082;50.870;0.022;2024-01-30T05:28:43;2.90;;;1.13;;
37805;SDS011;25082;50.870;0.022;2024-01-30T05:31:11;3.83;;;0.93;;
37805;SDS011;25082;50.870;0.022;2024-01-30T05:33:37;3.03;;;1.20;;
37805;SDS011;25082;50.870;0.022;2024-01-30T05:36:03;3.80;;;0.98;;
37805;SDS011;25082;50.870;0.022;2024-01-30T05:38:29;1.98;;;0.73;;
37805;SDS011;25082;50.870;0.022;2024-01-30T05:40:55;5.63;;;1.35;;
37805;SDS011;25082;50.870;0.022;2024-01-30T05:43:23;3.22;;;0.93;;
37805;SDS011;25082;50.870;0.022;2024-01-30T05:45:49;2.30;;;0.82;;
37805;SDS011;25082;50.870;0.022;2024-01-30T05:48:15;3.88;;;1.10;;
37805;SDS011;25082;50.870;0.022;2024-01-30T05:50:41;3.22;;;0.82;;
37805;SDS011;25082;50.870;0.022;2024-01-30T05:53:07;2.63;;;0.98;;
37805;SDS011;25082;50.870;0.022;2024-01-30T05:55:32;3.25;;;1.10;;
37805;SDS011;25082;50.870;0.022;2024-01-30T05:57:58;2.90;;;0.98;;
37805;SDS011;25082;50.870;0.022;2024-01-30T06:00:24;4.78;;;1.02;;
37805;SDS011;25082;50.870;0.022;2024-01-30T06:02:50;4.88;;;0.93;;
37805;SDS011;25082;50.870;0.022;2024-01-30T06:05:15;5.50;;;0.80;;
37805;SDS011;25082;50.870;0.022;2024-01-30T06:07:41;3.28;;;0.82;;
37805;SDS011;25082;50.870;0.022;2024-01-30T06:10:07;2.55;;;0.60;;
37805;SDS011;25082;50.870;0.022;2024-01-30T06:12:34;2.67;;;1.08;;
37805;SDS011;25082;50.870;0.022;2024-01-30T06:15:00;3.47;;;0.70;;
37805;SDS011;25082;50.870;0.022;2024-01-30T06:17:26;1.70;;;0.60;;
37805;SDS011;25082;50.870;0.022;2024-01-30T06:19:52;2.28;;;0.47;;
37805;SDS011;25082;50.870;0.022;2024-01-30T06:22:18;3.25;;;0.82;;
37805;SDS011;25082;50.870;0.022;2024-01-30T06:24:43;4.25;;;1.15;;
37805;SDS011;25082;50.870;0.022;2024-01-30T06:27:15;3.53;;;0.93;;
37805;SDS011;25082;50.870;0.022;2024-01-30T06:29:42;3.58;;;0.57;;
37805;SDS011;25082;50.870;0.022;2024-01-30T06:32:08;2.22;;;0.60;;
37805;SDS011;25082;50.870;0.022;2024-01-30T06:34:34;6.18;;;0.93;;
37805;SDS011;25082;50.870;0.022;2024-01-30T06:37:00;5.20;;;1.00;;
37805;SDS011;25082;50.870;0.022;2024-01-30T06:39:26;2.83;;;0.95;;
37805;SDS011;25082;50.870;0.022;2024-01-30T06:41:52;4.50;;;0.70;;
37805;SDS011;25082;50.870;0.022;2024-01-30T06:44:18;2.80;;;0.65;;
37805;SDS011;25082;50.870;0.022;2024-01-30T06:46:44;2.65;;;0.70;;
37805;SDS011;25082;50.870;0.022;2024-01-30T06:49:09;2.75;;;0.65;;
37805;SDS011;25082;50.870;0.022;2024-01-30T06:51:35;2.03;;;0.75;;
37805;SDS011;25082;50.870;0.022;2024-01-30T06:54:01;2.95;;;0.68;;
37805;SDS011;25082;50.870;0.022;2024-01-30T06:56:27;2.03;;;0.68;;
37805;SDS011;25082;50.870;0.022;2024-01-30T06:58:53;4.53;;;1.30;;
37805;SDS011;25082;50.870;0.022;2024-01-30T07:01:19;3.55;;;0.88;;
37805;SDS011;25082;50.870;0.022;2024-01-30T07:03:45;4.40;;;0.90;;
37805;SDS011;25082;50.870;0.022;2024-01-30T07:06:11;2.28;;;0.90;;
37805;SDS011;25082;50.870;0.022;2024-01-30T07:08:37;3.45;;;0.88;;
37805;SDS011;25082;50.870;0.022;2024-01-30T07:11:04;3.10;;;0.88;;
37805;SDS011;25082;50.870;0.022;2024-01-30T07:13:31;2.25;;;1.15;;
37805;SDS011;25082;50.870;0.022;2024-01-30T07:15:57;3.15;;;0.93;;
37805;SDS011;25082;50.870;0.022;2024-01-30T07:18:23;2.95;;;0.75;;
37805;SDS011;25082;50.870;0.022;2024-01-30T07:20:49;2.70;;;0.95;;
37805;SDS011;25082;50.870;0.022;2024-01-30T07:23:15;1.20;;;0.77;;
37805;SDS011;25082;50.870;0.022;2024-01-30T07:25:45;2.20;;;0.90;;
37805;SDS011;25082;50.870;0.022;2024-01-30T07:28:15;1.88;;;0.60;;
37805;SDS011;25082;50.870;0.022;2024-01-30T07:30:44;2.20;;;0.57;;
37805;SDS011;25082;50.870;0.022;2024-01-30T07:33:09;3.63;;;0.77;;
37805;SDS011;25082;50.870;0.022;2024-01-30T07:35:35;2.15;;;0.63;;
37805;SDS011;25082;50.870;0.022;2024-01-30T07:38:01;2.60;;;0.52;;
37805;SDS011;25082;50.870;0.022;2024-01-30T07:40:27;1.50;;;0.50;;
37805;SDS011;25082;50.870;0.022;2024-01-30T07:42:53;2.42;;;0.98;;
37805;SDS011;25082;50.870;0.022;2024-01-30T07:45:19;3.65;;;1.00;;
37805;SDS011;25082;50.870;0.022;2024-01-30T07:47:48;1.85;;;0.47;;
37805;SDS011;25082;50.870;0.022;2024-01-30T07:50:14;1.27;;;0.50;;
37805;SDS011;25082;50.870;0.022;2024-01-30T07:52:40;3.05;;;0.73;;
37805;SDS011;25082;50.870;0.022;2024-01-30T07:55:06;0.95;;;0.30;;
37805;SDS011;25082;50.870;0.022;2024-01-30T07:57:33;1.83;;;0.68;;
37805;SDS011;25082;50.870;0.022;2024-01-30T07:59:59;1.85;;;0.60;;
37805;SDS011;25082;50.870;0.022;2024-01-30T08:02:28;2.22;;;0.77;;
37805;SDS011;25082;50.870;0.022;2024-01-30T08:04:54;3.40;;;0.90;;
37805;SDS011;25082;50.870;0.022;2024-01-30T08:07:19;3.00;;;0.65;;
37805;SDS011;25082;50.870;0.022;2024-01-30T08:09:47;2.60;;;0.50;;
37805;SDS011;25082;50.870;0.022;2024-01-30T08:12:13;1.00;;;0.47;;
37805;SDS011;25082;50.870;0.022;2024-01-30T08:14:39;1.65;;;0.22;;
37805;SDS011;25082;50.870;0.022;2024-01-30T08:17:06;1.55;;;0.50;;
37805;SDS011;25082;50.870;0.022;2024-01-30T08:19:32;1.73;;;0.30;;
37805;SDS011;25082;50.870;0.022;2024-01-30T08:21:58;1.42;;;0.45;;
37805;SDS011;25082;50.870;0.022;2024-01-30T08:24:24;1.23;;;0.50;;
37805;SDS011;25082;50.870;0.022;2024-01-30T08:26:50;1.30;;;0.50;;
37805;SDS011;25082;50.870;0.022;2024-01-30T08:29:16;2.22;;;0.55;;
37805;SDS011;25082;50.870;0.022;2024-01-30T08:31:41;1.60;;;0.55;;
37805;SDS011;25082;50.870;0.022;2024-01-30T08:34:07;1.30;;;0.57;;
37805;SDS011;25082;50.870;0.022;2024-01-30T08:36:33;1.10;;;0.40;;
37805;SDS011;25082;50.870;0.022;2024-01-30T08:38:59;1.05;;;0.55;;
37805;SDS011;25082;50.870;0.022;2024-01-30T08:41:24;2.38;;;0.60;;
37805;SDS011;25082;50.870;0.022;2024-01-30T08:43:51;3.92;;;0.50;;
37805;SDS011;25082;50.870;0.022;2024-01-30T08:46:17;1.55;;;0.40;;
37805;SDS011;25082;50.870;0.022;2024-01-30T08:48:44;1.42;;;0.60;;
37805;SDS011;25082;50.870;0.022;2024-01-30T08:51:10;2.53;;;0.50;;
37805;SDS011;25082;50.870;0.022;2024-01-30T08:53:36;1.65;;;0.38;;
37805;SDS011;25082;50.870;0.022;2024-01-30T08:56:02;3.55;;;0.70;;
37805;SDS011;25082;50.870;0.022;2024-01-30T08:58:29;2.20;;;0.60;;
37805;SDS011;25082;50.870;0.022;2024-01-30T09:00:55;0.98;;;0.50;;
37805;SDS011;25082;50.870;0.022;2024-01-30T09:03:21;3.47;;;0.65;;
37805;SDS011;25082;50.870;0.022;2024-01-30T09:05:47;0.70;;;0.30;;
37805;SDS011;25082;50.870;0.022;2024-01-30T09:08:12;3.67;;;0.60;;
37805;SDS011;25082;50.870;0.022;2024-01-30T09:10:38;2.35;;;0.40;;
37805;SDS011;25082;50.870;0.022;2024-01-30T09:13:04;6.40;;;1.30;;
37805;SDS011;25082;50.870;0.022;2024-01-30T09:15:30;1.95;;;0.40;;
37805;SDS011;25082;50.870;0.022;2024-01-30T09:17:55;5.25;;;1.02;;
37805;SDS011;25082;50.870;0.022;2024-01-30T09:20:21;1.30;;;0.68;;
37805;SDS011;25082;50.870;0.022;2024-01-30T09:22:48;1.58;;;0.70;;
37805;SDS011;25082;50.870;0.022;2024-01-30T09:25:14;4.00;;;1.00;;
37805;SDS011;25082;50.870;0.022;2024-01-30T09:27:40;3.00;;;0.60;;
37805;SDS011;25082;50.870;0.022;2024-01-30T09:30:06;4.40;;;0.70;;
37805;SDS011;25082;50.870;0.022;2024-01-30T09:32:32;2.53;;;0.60;;
37805;SDS011;25082;50.870;0.022;2024-01-30T09:34:58;1.98;;;0.70;;
37805;SDS011;25082;50.870;0.022;2024-01-30T09:37:24;3.22;;;1.15;;
37805;SDS011;25082;50.870;0.022;2024-01-30T09:39:49;2.08;;;1.00;;
37805;SDS011;25082;50.870;0.022;2024-01-30T09:42:28;2.00;;;0.93;;
37805;SDS011;25082;50.870;0.022;2024-01-30T09:45:01;3.47;;;0.77;;
37805;SDS011;25082;50.870;0.022;2024-01-30T09:47:51;7.88;;;4.03;;
37805;SDS011;25082;50.870;0.022;2024-01-30T09:50:17;85.88;;;34.17;;
37805;SDS011;25082;50.870;0.022;2024-01-30T09:52:46;123.35;;;55.70;;
37805;SDS011;25082;50.870;0.022;2024-01-30T09:55:12;223.25;;;103.15;;
37805;SDS011;25082;50.870;0.022;2024-01-30T09:57:39;239.98;;;111.90;;
37805;SDS011;25082;50.870;0.022;2024-01-30T10:00:06;258.33;;;117.32;;
37805;SDS011;25082;50.870;0.022;2024-01-30T10:02:34;221.13;;;106.78;;
37805;SDS011;25082;50.870;0.022;2024-01-30T10:05:00;214.10;;;100.18;;
37805;SDS011;25082;50.870;0.022;2024-01-30T10:07:27;59.70;;;26.95;;
37805;SDS011;25082;50.870;0.022;2024-01-30T10:09:53;120.18;;;54.55;;
37805;SDS011;25082;50.870;0.022;2024-01-30T10:12:21;131.32;;;65.65;;
37805;SDS011;25082;50.870;0.022;2024-01-30T10:14:47;132.88;;;62.67;;
37805;SDS011;25082;50.870;0.022;2024-01-30T10:17:13;133.35;;;60.08;;
37805;SDS011;25082;50.870;0.022;2024-01-30T10:19:39;121.70;;;58.70;;
37805;SDS011;25082;50.870;0.022;2024-01-30T10:22:06;122.43;;;58.10;;
37805;SDS011;25082;50.870;0.022;2024-01-30T10:24:33;130.55;;;57.47;;
37805;SDS011;25082;50.870;0.022;2024-01-30T10:26:59;89.18;;;40.63;;
37805;SDS011;25082;50.870;0.022;2024-01-30T10:29:26;96.80;;;47.25;;
37805;SDS011;25082;50.870;0.022;2024-01-30T10:32:02;105.13;;;44.85;;
37805;SDS011;25082;50.870;0.022;2024-01-30T10:34:29;97.15;;;45.20;;
37805;SDS011;25082;50.870;0.022;2024-01-30T10:36:59;104.53;;;46.30;;
37805;SDS011;25082;50.870;0.022;2024-01-30T10:39:32;89.03;;;42.08;;
37805;SDS011;25082;50.870;0.022;2024-01-30T10:42:03;83.60;;;41.60;;
37805;SDS011;25082;50.870;0.022;2024-01-30T10:44:34;87.18;;;39.33;;
37805;SDS011;25082;50.870;0.022;2024-01-30T10:47:07;81.18;;;37.28;;
37805;SDS011;25082;50.870;0.022;2024-01-30T10:49:38;82.30;;;36.80;;
37805;SDS011;25082;50.870;0.022;2024-01-30T10:52:06;81.10;;;35.97;;
37805;SDS011;25082;50.870;0.022;2024-01-30T10:54:34;76.78;;;36.40;;
37805;SDS011;25082;50.870;0.022;2024-01-30T10:57:01;77.40;;;35.45;;
37805;SDS011;25082;50.870;0.022;2024-01-30T10:59:29;76.43;;;35.28;;
37805;SDS011;25082;50.870;0.022;2024-01-30T11:01:56;75.10;;;33.35;;
37805;SDS011;25082;50.870;0.022;2024-01-30T11:04:24;68.60;;;31.95;;
37805;SDS011;25082;50.870;0.022;2024-01-30T11:06:50;67.13;;;30.80;;
37805;SDS011;25082;50.870;0.022;2024-01-30T11:09:17;60.53;;;30.08;;
37805;SDS011;25082;50.870;0.022;2024-01-30T11:11:49;60.88;;;27.30;;
37805;SDS011;25082;50.870;0.022;2024-01-30T11:14:16;61.85;;;27.73;;
37805;SDS011;25082;50.870;0.022;2024-01-30T11:16:48;56.33;;;27.45;;
37805;SDS011;25082;50.870;0.022;2024-01-30T11:19:14;53.20;;;25.77;;
37805;SDS011;25082;50.870;0.022;2024-01-30T11:21:43;51.83;;;25.92;;
37805;SDS011;25082;50.870;0.022;2024-01-30T11:24:09;48.00;;;23.23;;
37805;SDS011;25082;50.870;0.022;2024-01-30T11:26:35;48.53;;;23.83;;
37805;SDS011;25082;50.870;0.022;2024-01-30T11:29:04;45.95;;;23.13;;
37805;SDS011;25082;50.870;0.022;2024-01-30T11:33:58;46.15;;;21.30;;
37805;SDS011;25082;50.870;0.022;2024-01-30T11:36:25;42.63;;;20.48;;
37805;SDS011;25082;50.870;0.022;2024-01-30T11:38:52;39.40;;;20.02;;
37805;SDS011;25082;50.870;0.022;2024-01-30T11:41:19;41.08;;;20.42;;
37805;SDS011;25082;50.870;0.022;2024-01-30T11:43:54;40.20;;;18.10;;
37805;SDS011;25082;50.870;0.022;2024-01-30T11:46:20;38.40;;;18.48;;
37805;SDS011;25082;50.870;0.022;2024-01-30T11:48:46;36.08;;;18.77;;
37805;SDS011;25082;50.870;0.022;2024-01-30T11:51:13;32.20;;;16.05;;
37805;SDS011;25082;50.870;0.022;2024-01-30T11:53:39;33.38;;;16.38;;
37805;SDS011;25082;50.870;0.022;2024-01-30T11:56:08;36.80;;;16.83;;
37805;SDS011;25082;50.870;0.022;2024-01-30T11:58:33;34.55;;;15.95;;
37805;SDS011;25082;50.870;0.022;2024-01-30T12:00:59;33.25;;;14.88;;
37805;SDS011;25082;50.870;0.022;2024-01-30T12:03:25;30.60;;;14.88;;
37805;SDS011;25082;50.870;0.022;2024-01-30T12:05:54;28.08;;;14.00;;
37805;SDS011;25082;50.870;0.022;2024-01-30T12:08:23;30.30;;;13.70;;
37805;SDS011;25082;50.870;0.022;2024-01-30T12:10:56;32.80;;;15.05;;
37805;SDS011;25082;50.870;0.022;2024-01-30T12:13:23;32.13;;;14.13;;
37805;SDS011;25082;50.870;0.022;2024-01-30T12:15:49;30.42;;;12.13;;
37805;SDS011;25082;50.870;0.022;2024-01-30T12:18:18;25.55;;;12.38;;
37805;SDS011;25082;50.870;0.022;2024-01-30T12:20:44;25.85;;;11.55;;
37805;SDS011;25082;50.870;0.022;2024-01-30T12:23:11;25.75;;;11.65;;
37805;SDS011;25082;50.870;0.022;2024-01-30T12:25:37;25.48;;;11.20;;
37805;SDS011;25082;50.870;0.022;2024-01-30T12:28:03;22.05;;;10.63;;
37805;SDS011;25082;50.870;0.022;2024-01-30T12:30:29;23.80;;;10.85;;
37805;SDS011;25082;50.870;0.022;2024-01-30T12:32:55;20.98;;;9.82;;
37805;SDS011;25082;50.870;0.022;2024-01-30T12:35:21;21.55;;;10.10;;
37805;SDS011;25082;50.870;0.022;2024-01-30T12:37:48;17.17;;;7.05;;
37805;SDS011;25082;50.870;0.022;2024-01-30T12:40:15;20.50;;;8.75;;
37805;SDS011;25082;50.870;0.022;2024-01-30T12:42:42;16.73;;;8.85;;
37805;SDS011;25082;50.870;0.022;2024-01-30T12:45:11;17.10;;;7.68;;
37805;SDS011;25082;50.870;0.022;2024-01-30T12:47:37;15.85;;;7.72;;
37805;SDS011;25082;50.870;0.022;2024-01-30T12:50:03;21.77;;;8.15;;
37805;SDS011;25082;50.870;0.022;2024-01-30T12:52:29;16.63;;;8.27;;
37805;SDS011;25082;50.870;0.022;2024-01-30T12:54:54;18.83;;;8.50;;
37805;SDS011;25082;50.870;0.022;2024-01-30T12:57:20;16.83;;;8.40;;
37805;SDS011;25082;50.870;0.022;2024-01-30T12:59:46;18.30;;;9.13;;
37805;SDS011;25082;50.870;0.022;2024-01-30T13:02:14;17.60;;;9.02;;
37805;SDS011;25082;50.870;0.022;2024-01-30T13:04:41;17.70;;;9.55;;
37805;SDS011;25082;50.870;0.022;2024-01-30T13:07:07;18.83;;;8.93;;
37805;SDS011;25082;50.870;0.022;2024-01-30T13:09:33;16.70;;;7.45;;
37805;SDS011;25082;50.870;0.022;2024-01-30T13:11:59;16.83;;;8.07;;
37805;SDS011;25082;50.870;0.022;2024-01-30T13:14:25;20.05;;;8.98;;
37805;SDS011;25082;50.870;0.022;2024-01-30T13:16:51;18.38;;;7.97;;
37805;SDS011;25082;50.870;0.022;2024-01-30T13:19:17;23.30;;;8.05;;
37805;SDS011;25082;50.870;0.022;2024-01-30T13:21:43;13.82;;;7.45;;
37805;SDS011;25082;50.870;0.022;2024-01-30T13:24:09;13.55;;;7.25;;
37805;SDS011;25082;50.870;0.022;2024-01-30T13:26:35;15.30;;;6.43;;
37805;SDS011;25082;50.870;0.022;2024-01-30T13:29:01;14.90;;;6.85;;
37805;SDS011;25082;50.870;0.022;2024-01-30T13:31:28;15.10;;;6.10;;
37805;SDS011;25082;50.870;0.022;2024-01-30T13:33:54;12.98;;;6.80;;
37805;SDS011;25082;50.870;0.022;2024-01-30T13:36:20;13.23;;;6.20;;
37805;SDS011;25082;50.870;0.022;2024-01-30T13:38:46;13.55;;;5.43;;
37805;SDS011;25082;50.870;0.022;2024-01-30T13:41:12;11.52;;;5.80;;
37805;SDS011;25082;50.870;0.022;2024-01-30T13:43:38;9.23;;;5.15;;
37805;SDS011;25082;50.870;0.022;2024-01-30T13:46:03;9.93;;;5.28;;
37805;SDS011;25082;50.870;0.022;2024-01-30T13:48:30;11.23;;;4.50;;
37805;SDS011;25082;50.870;0.022;2024-01-30T13:50:56;13.75;;;5.20;;
37805;SDS011;25082;50.870;0.022;2024-01-30T13:53:22;13.45;;;5.00;;
37805;SDS011;25082;50.870;0.022;2024-01-30T13:55:48;9.75;;;4.45;;
37805;SDS011;25082;50.870;0.022;2024-01-30T13:58:14;10.25;;;4.75;;
37805;SDS011;25082;50.870;0.022;2024-01-30T14:00:39;11.48;;;4.35;;
37805;SDS011;25082;50.870;0.022;2024-01-30T14:03:05;14.43;;;5.10;;
37805;SDS011;25082;50.870;0.022;2024-01-30T14:05:31;12.73;;;4.68;;
37805;SDS011;25082;50.870;0.022;2024-01-30T14:07:57;20.40;;;4.75;;
37805;SDS011;25082;50.870;0.022;2024-01-30T14:10:24;9.52;;;3.38;;
37805;SDS011;25082;50.870;0.022;2024-01-30T14:12:51;9.02;;;4.20;;
37805;SDS011;25082;50.870;0.022;2024-01-30T14:15:16;7.55;;;3.75;;
37805;SDS011;25082;50.870;0.022;2024-01-30T14:17:46;8.00;;;3.65;;
37805;SDS011;25082;50.870;0.022;2024-01-30T14:20:13;8.40;;;3.53;;
37805;SDS011;25082;50.870;0.022;2024-01-30T14:22:42;9.38;;;4.22;;
37805;SDS011;25082;50.870;0.022;2024-01-30T14:25:08;12.35;;;4.65;;
37805;SDS011;25082;50.870;0.022;2024-01-30T14:27:34;8.80;;;3.75;;
37805;SDS011;25082;50.870;0.022;2024-01-30T14:30:00;10.13;;;3.55;;
37805;SDS011;25082;50.870;0.022;2024-01-30T14:32:27;8.68;;;3.00;;
37805;SDS011;25082;50.870;0.022;2024-01-30T14:34:53;5.68;;;2.80;;
37805;SDS011;25082;50.870;0.022;2024-01-30T14:37:20;6.65;;;3.00;;
37805;SDS011;25082;50.870;0.022;2024-01-30T14:39:47;8.55;;;3.60;;